Time;durP1;ratioP1;P1;durP2;ratioP2;P2;SDS_P1;SDS_P2;PMS_P1;PMS_P2;Temp;Humidity;BMP_temperature;BMP_pressure;BME280_temperature;BME280_humidity;BME280_pressure;Samples;Min_cycle;Max_cycle;Signal;HPM_P1;HPM_P2
2022/06/10 00:02:12;;;;;;;12.20;2.80;;;15.00;99.90;;;;;;5065679;28;20295;-52
2022/06/10 00:04:39;;;;;;;9.77;2.63;;;15.00;99.90;;;;;;5070100;28;20222;-52
2022/06/10 00:07:06;;;;;;;6.63;2.73;;;14.90;99.90;;;;;;5067297;28;20260;-52
2022/06/10 00:09:33;;;;;;;10.87;2.53;;;14.90;99.90;;;;;;5073204;28;20283;-53
2022/06/10 00:12:00;;;;;;;3.93;2.70;;;14.90;99.90;;;;;;5072204;28;20194;-52
2022/06/10 00:14:27;;;;;;;7.20;3.20;;;14.90;99.90;;;;;;5060884;28;20273;-53
2022/06/10 00:16:54;;;;;;;8.03;3.20;;;14.90;99.90;;;;;;5078231;28;20200;-52
2022/06/10 00:19:21;;;;;;;9.40;3.10;;;15.00;99.90;;;;;;5073988;28;20909;-53
2022/06/10 00:21:48;;;;;;;6.47;2.90;;;14.90;99.90;;;;;;5073576;28;20197;-53
2022/06/10 00:24:15;;;;;;;7.93;4.07;;;14.90;99.90;;;;;;5076488;28;20310;-53
2022/06/10 00:26:41;;;;;;;9.27;2.93;;;15.00;99.90;;;;;;5051841;28;20230;-53
2022/06/10 00:29:08;;;;;;;5.33;2.77;;;14.90;99.90;;;;;;5076264;28;20910;-53
2022/06/10 00:31:35;;;;;;;8.57;3.63;;;14.90;99.90;;;;;;5082277;28;20201;-51
2022/06/10 00:34:02;;;;;;;7.37;3.00;;;14.80;99.90;;;;;;5079675;28;20333;-53
2022/06/10 00:36:29;;;;;;;7.63;2.97;;;14.90;99.90;;;;;;5081902;28;20299;-53
2022/06/10 00:38:56;;;;;;;7.87;3.87;;;14.90;99.90;;;;;;5079574;28;20268;-53
2022/06/10 00:41:23;;;;;;;10.10;3.10;;;14.80;99.90;;;;;;5083176;28;20294;-52
2022/06/10 00:43:50;;;;;;;10.23;3.33;;;14.80;99.90;;;;;;5081904;28;20231;-54
2022/06/10 00:46:26;;;;;;;8.47;3.03;;;14.80;99.90;;;;;;5081026;28;20216;-52
2022/06/10 00:49:05;;;;;;;7.80;2.37;;;14.90;99.90;;;;;;5085843;28;20196;-52
2022/06/10 00:51:46;;;;;;;8.73;3.23;;;14.90;99.90;;;;;;5084911;28;20245;-52
2022/06/10 00:54:27;;;;;;;10.83;3.10;;;14.90;99.90;;;;;;5074257;28;20261;-53
2022/06/10 00:56:54;;;;;;;7.20;2.87;;;15.00;99.90;;;;;;5077562;28;20282;-53
2022/06/10 00:59:25;;;;;;;8.90;2.83;;;14.90;99.90;;;;;;5078153;28;20204;-52
2022/06/10 01:01:55;;;;;;;4.80;2.47;;;15.00;99.90;;;;;;5078146;28;20232;-53
2022/06/10 01:04:23;;;;;;;8.27;2.60;;;15.00;99.90;;;;;;5075758;28;20583;-52
2022/06/10 01:06:50;;;;;;;11.63;3.00;;;14.90;99.90;;;;;;5074978;28;20226;-52
2022/06/10 01:09:17;;;;;;;8.03;2.93;;;15.00;99.90;;;;;;5076265;28;20299;-53
2022/06/10 01:11:56;;;;;;;8.10;2.70;;;14.90;99.90;;;;;;5072669;28;20188;-53
2022/06/10 01:14:46;;;;;;;4.83;2.33;;;14.90;99.90;;;;;;5074818;28;20231;-53
2022/06/10 01:17:45;;;;;;;9.30;3.67;;;14.70;99.90;;;;;;5071407;28;21145;-53
2022/06/10 01:20:43;;;;;;;4.50;2.57;;;14.90;99.90;;;;;;5078605;28;20690;-53
2022/06/10 01:23:55;;;;;;;5.83;2.73;;;15.00;99.90;;;;;;5076782;28;20812;-53
2022/06/10 01:27:47;;;;;;;4.70;2.30;;;15.00;99.90;;;;;;5045588;28;20306;-52
2022/06/10 01:29:48;;;;;;;7.13;2.70;;;14.80;99.90;;;;;;5074656;28;20750;-52
2022/06/10 01:32:45;;;;;;;5.93;2.47;;;15.00;99.90;;;;;;5069868;28;20207;-53
2022/06/10 01:35:41;;;;;;;8.73;2.77;;;14.90;99.90;;;;;;5083279;28;22532;-52
2022/06/10 01:38:22;;;;;;;9.90;3.07;;;14.90;99.90;;;;;;5085463;28;20865;-52
2022/06/10 01:41:03;;;;;;;4.67;2.47;;;15.10;99.90;;;;;;5075075;28;20202;-52
2022/06/10 01:44:01;;;;;;;5.43;2.40;;;15.20;99.90;;;;;;5076202;28;20240;-51
2022/06/10 01:46:32;;;;;;;6.77;2.60;;;15.00;99.90;;;;;;5077692;28;20221;-51
2022/06/10 01:49:24;;;;;;;3.60;2.03;;;15.00;99.90;;;;;;5075742;28;20914;-52
2022/06/10 01:52:21;;;;;;;7.57;2.10;;;15.10;99.90;;;;;;5075215;28;20671;-52
2022/06/10 01:55:09;;;;;;;9.77;2.37;;;15.20;99.90;;;;;;5075158;28;20197;-52
2022/06/10 01:57:43;;;;;;;7.10;2.50;;;15.20;99.90;;;;;;5071920;28;20257;-51
2022/06/10 02:00:17;;;;;;;10.07;2.50;;;15.10;99.90;;;;;;5073481;28;20201;-52
2022/06/10 02:03:06;;;;;;;7.77;2.53;;;15.20;99.90;;;;;;5071776;28;20194;-51
2022/06/10 02:05:41;;;;;;;9.53;2.53;;;15.30;99.90;;;;;;5059722;28;20250;-52
2022/06/10 02:08:20;;;;;;;6.27;2.03;;;15.30;99.90;;;;;;5073754;28;20188;-52
2022/06/10 02:11:04;;;;;;;10.77;2.50;;;15.30;99.90;;;;;;5070030;28;20193;-52
2022/06/10 02:13:40;;;;;;;5.03;2.13;;;15.20;99.90;;;;;;5076287;28;20207;-53
2022/06/10 02:16:12;;;;;;;7.33;2.57;;;15.30;99.90;;;;;;5072856;28;20217;-56
2022/06/10 02:18:49;;;;;;;4.63;2.23;;;15.20;91.60;;;;;;5079946;28;20199;-52
2022/06/10 02:21:22;;;;;;;6.13;2.10;;;15.30;99.90;;;;;;5077792;28;20198;-50
2022/06/10 02:24:11;;;;;;;9.00;2.17;;;15.30;99.90;;;;;;5062471;28;20305;-53
2022/06/10 02:26:40;;;;;;;6.30;1.73;;;15.20;99.90;;;;;;5078688;28;22407;-53
2022/06/10 02:29:12;;;;;;;7.83;2.07;;;15.30;99.90;;;;;;5076170;28;20197;-52
2022/06/10 02:31:54;;;;;;;7.60;2.10;;;15.40;99.50;;;;;;5074299;28;20205;-52
2022/06/10 02:34:21;;;;;;;8.93;2.20;;;15.50;29.60;;;;;;5081286;28;20215;-52
2022/06/10 02:37:17;;;;;;;7.40;2.10;;;15.50;1.00;;;;;;5083111;28;20239;-52
2022/06/10 02:40:09;;;;;;;6.37;1.97;;;15.50;1.00;;;;;;5079288;28;20226;-52
2022/06/10 02:42:51;;;;;;;8.83;2.27;;;15.50;3.20;;;;;;5069537;28;20208;-51
2022/06/10 02:45:30;;;;;;;6.40;1.80;;;15.50;12.10;;;;;;5084450;28;20675;-51
2022/06/10 02:48:29;;;;;;;4.07;1.80;;;15.40;37.20;;;;;;5081405;28;20197;-52
2022/06/10 02:50:56;;;;;;;7.17;1.80;;;15.50;93.00;;;;;;5076170;28;20203;-50
2022/06/10 02:53:23;;;;;;;7.20;1.90;;;15.50;86.60;;;;;;5072808;28;20704;-53
2022/06/10 02:55:50;;;;;;;5.30;1.73;;;15.60;48.10;;;;;;5083426;28;20193;-51
2022/06/10 03:01:18;;;;;;;5.57;1.87;;;15.50;99.90;;;;;;5075132;28;20283;-52
2022/06/10 03:04:09;;;;;;;4.30;1.90;;;15.40;99.90;;;;;;5078253;28;20988;-52
2022/06/10 03:06:39;;;;;;;6.43;2.17;;;15.40;99.90;;;;;;5074907;28;20201;-52
2022/06/10 03:09:21;;;;;;;4.90;1.90;;;15.40;99.90;;;;;;5080204;28;20209;-53
2022/06/10 03:12:03;;;;;;;6.97;1.77;;;15.30;99.90;;;;;;5078723;28;20681;-53
2022/06/10 03:14:41;;;;;;;6.30;1.70;;;15.40;99.90;;;;;;5083240;28;20212;-52
2022/06/10 03:17:35;;;;;;;6.20;1.90;;;15.50;99.90;;;;;;5071497;28;20280;-53
2022/06/10 03:20:19;;;;;;;6.90;2.63;;;15.40;99.90;;;;;;5079303;28;20197;-52
2022/06/10 03:23:04;;;;;;;5.50;2.23;;;15.20;99.90;;;;;;5085108;28;20226;-51
2022/06/10 03:25:51;;;;;;;5.60;1.80;;;15.30;99.90;;;;;;5073512;28;20384;-52
2022/06/10 03:28:27;;;;;;;5.13;1.70;;;15.30;99.90;;;;;;5079871;28;20196;-52
2022/06/10 03:31:09;;;;;;;4.17;1.57;;;15.20;99.90;;;;;;5074094;28;20228;-52
2022/06/10 03:33:42;;;;;;;5.10;1.70;;;15.30;99.90;;;;;;5074491;28;20198;-52
2022/06/10 03:36:12;;;;;;;6.00;1.90;;;15.40;99.90;;;;;;5072568;28;20237;-52
2022/06/10 03:38:43;;;;;;;4.73;1.30;;;15.30;99.90;;;;;;5074118;28;20196;-52
2022/06/10 03:41:29;;;;;;;5.40;1.70;;;15.30;99.90;;;;;;5073279;28;20729;-52
2022/06/10 03:43:58;;;;;;;3.57;1.70;;;15.30;99.90;;;;;;5073050;28;20869;-52
2022/06/10 03:46:30;;;;;;;6.07;1.60;;;15.30;99.90;;;;;;5075365;28;20205;-51
2022/06/10 03:49:01;;;;;;;6.10;1.13;;;15.40;99.90;;;;;;5073250;28;20205;-52
2022/06/10 03:51:28;;;;;;;4.60;1.70;;;15.50;99.90;;;;;;5071040;28;20735;-53
2022/06/10 03:53:56;;;;;;;4.27;1.20;;;15.40;99.90;;;;;;5070580;28;20651;-52
2022/06/10 03:56:24;;;;;;;6.93;2.10;;;15.40;99.90;;;;;;5074912;28;20306;-52
2022/06/10 03:58:51;;;;;;;4.57;1.67;;;15.50;99.90;;;;;;5073104;28;20234;-53
2022/06/10 04:01:19;;;;;;;6.10;1.40;;;15.60;99.90;;;;;;5073334;28;20221;-52
2022/06/10 04:03:46;;;;;;;10.13;1.80;;;15.70;99.90;;;;;;5079328;28;20202;-53
2022/06/10 04:06:13;;;;;;;6.33;1.73;;;15.70;99.90;;;;;;5074546;28;20203;-52
2022/06/10 04:09:00;;;;;;;5.20;1.77;;;15.70;99.90;;;;;;5082116;28;20555;-52
2022/06/10 04:11:32;;;;;;;3.57;1.80;;;15.70;99.90;;;;;;5074604;28;20199;-51
2022/06/10 04:13:58;;;;;;;6.83;1.70;;;15.60;99.90;;;;;;5077763;28;20250;-51
2022/06/10 04:16:27;;;;;;;3.97;1.50;;;15.60;99.90;;;;;;5080857;28;20232;-51
2022/06/10 04:18:54;;;;;;;2.97;1.67;;;15.70;99.90;;;;;;5072798;28;20201;-52
2022/06/10 04:21:21;;;;;;;7.43;1.60;;;15.80;99.90;;;;;;5071712;28;20204;-53
2022/06/10 04:23:48;;;;;;;4.10;1.30;;;15.70;99.90;;;;;;5078865;28;20358;-53
2022/06/10 04:26:15;;;;;;;6.57;1.60;;;15.70;99.90;;;;;;5073564;28;20200;-53
2022/06/10 04:28:42;;;;;;;4.23;1.70;;;15.80;99.90;;;;;;5085337;28;20664;-52
2022/06/10 04:31:08;;;;;;;5.87;1.90;;;15.80;99.90;;;;;;5075524;28;20298;-53
2022/06/10 04:33:35;;;;;;;5.27;1.50;;;15.80;99.90;;;;;;5077414;28;20201;-51
2022/06/10 04:36:03;;;;;;;11.17;2.00;;;15.70;99.90;;;;;;5079703;28;20201;-52
2022/06/10 04:38:30;;;;;;;6.43;1.80;;;15.80;99.90;;;;;;5076358;28;20655;-53
2022/06/10 04:40:58;;;;;;;6.00;1.83;;;15.90;99.90;;;;;;5079228;28;20246;-52
2022/06/10 04:43:24;;;;;;;8.40;1.83;;;15.80;99.90;;;;;;5079541;28;20208;-53
2022/06/10 04:45:53;;;;;;;4.53;2.20;;;15.80;99.90;;;;;;5078543;28;20212;-52
2022/06/10 04:48:20;;;;;;;5.33;1.47;;;15.80;99.90;;;;;;5089134;28;22231;-51
2022/06/10 04:50:47;;;;;;;4.87;1.80;;;15.90;99.90;;;;;;5085272;28;20283;-53
2022/06/10 04:53:15;;;;;;;4.20;1.50;;;15.90;99.90;;;;;;5083397;28;20739;-52
2022/06/10 04:55:42;;;;;;;7.90;2.20;;;15.90;99.90;;;;;;5087031;28;20203;-52
2022/06/10 04:58:09;;;;;;;4.57;1.90;;;15.80;99.90;;;;;;5080131;28;20284;-53
2022/06/10 05:00:40;;;;;;;8.87;1.77;;;15.80;99.90;;;;;;5084148;28;20320;-53
2022/06/10 05:03:07;;;;;;;7.90;1.90;;;15.80;99.90;;;;;;5085578;28;20201;-52
2022/06/10 05:05:34;;;;;;;4.93;2.37;;;15.80;99.90;;;;;;5084136;28;20263;-53
2022/06/10 05:08:02;;;;;;;7.33;1.83;;;15.80;99.90;;;;;;5074884;28;20212;-52
2022/06/10 05:10:29;;;;;;;10.50;3.40;;;15.80;99.90;;;;;;5083522;28;20203;-52
2022/06/10 05:12:56;;;;;;;3.63;1.50;;;15.90;99.90;;;;;;5078729;28;20942;-52
2022/06/10 05:15:23;;;;;;;6.30;1.90;;;15.90;99.90;;;;;;5091692;28;20347;-52
2022/06/10 05:17:51;;;;;;;8.73;2.00;;;16.00;99.90;;;;;;5082993;28;20231;-53
2022/06/10 05:20:25;;;;;;;10.67;1.87;;;16.00;99.90;;;;;;5082095;28;20288;-53
2022/06/10 05:22:52;;;;;;;8.83;1.63;;;16.10;99.90;;;;;;5086334;28;20933;-52
2022/06/10 05:25:19;;;;;;;7.50;1.90;;;16.10;99.90;;;;;;5084242;28;20309;-53
2022/06/10 05:27:46;;;;;;;5.63;1.63;;;16.10;99.90;;;;;;5085553;28;20279;-53
2022/06/10 05:30:25;;;;;;;6.67;1.93;;;16.10;99.90;;;;;;5087335;28;20671;-51
2022/06/10 05:32:53;;;;;;;4.20;1.47;;;16.10;99.90;;;;;;5080589;28;20209;-51
2022/06/10 05:35:20;;;;;;;5.13;1.60;;;16.20;99.90;;;;;;5065489;28;20293;-53
2022/06/10 05:37:47;;;;;;;8.63;1.80;;;16.10;99.90;;;;;;5083549;28;20994;-52
2022/06/10 05:40:22;;;;;;;8.33;1.80;;;16.20;99.90;;;;;;5083915;28;20645;-56
2022/06/10 05:42:50;;;;;;;4.80;1.83;;;16.20;99.90;;;;;;5084065;28;20246;-49
2022/06/10 05:45:17;;;;;;;9.50;2.27;;;16.20;99.90;;;;;;5067342;28;20245;-50
2022/06/10 05:47:47;;;;;;;5.07;2.27;;;16.30;99.90;;;;;;5080648;28;20251;-49
2022/06/10 05:50:25;;;;;;;5.70;1.60;;;16.30;99.90;;;;;;5081892;28;20336;-53
2022/06/10 05:52:52;;;;;;;8.63;1.97;;;16.40;99.90;;;;;;5077265;28;20245;-51
2022/06/10 05:55:20;;;;;;;3.80;1.90;;;16.40;99.90;;;;;;5082864;28;20758;-49
2022/06/10 05:57:48;;;;;;;8.77;2.57;;;16.30;99.90;;;;;;5077273;28;20278;-52
2022/06/10 06:00:21;;;;;;;9.77;2.00;;;16.40;99.90;;;;;;5080437;28;20234;-51
2022/06/10 06:02:47;;;;;;;4.07;1.70;;;16.50;99.90;;;;;;5081485;28;20277;-52
2022/06/10 06:05:16;;;;;;;6.37;2.20;;;16.50;99.90;;;;;;5080830;28;20710;-52
2022/06/10 06:07:44;;;;;;;10.23;2.47;;;16.60;99.90;;;;;;5074047;28;20294;-52
2022/06/10 06:10:20;;;;;;;5.70;2.03;;;16.50;99.90;;;;;;5081027;28;20247;-52
2022/06/10 06:12:46;;;;;;;6.73;1.90;;;16.60;99.90;;;;;;5079729;28;20600;-52
2022/06/10 06:15:14;;;;;;;4.30;2.00;;;16.60;99.90;;;;;;5083090;28;20230;-51
2022/06/10 06:17:41;;;;;;;3.63;1.43;;;16.60;99.90;;;;;;5079019;28;20199;-51
2022/06/10 06:20:13;;;;;;;7.47;2.10;;;16.60;99.90;;;;;;5053089;28;20588;-51
2022/06/10 06:22:41;;;;;;;6.17;1.60;;;16.60;99.90;;;;;;5085512;28;20227;-53
2022/06/10 06:25:11;;;;;;;5.13;1.60;;;16.60;99.90;;;;;;5078737;28;20241;-53
2022/06/10 06:27:37;;;;;;;4.33;1.63;;;16.60;99.90;;;;;;5077719;28;20246;-52
2022/06/10 06:30:05;;;;;;;5.37;1.77;;;16.60;99.90;;;;;;5077349;28;20199;-50
2022/06/10 06:32:32;;;;;;;10.67;2.00;;;16.60;99.90;;;;;;5082571;28;20289;-53
2022/06/10 06:34:58;;;;;;;6.27;1.77;;;16.60;99.90;;;;;;5076954;28;20200;-52
2022/06/10 06:37:25;;;;;;;7.07;1.67;;;16.70;99.90;;;;;;5075815;28;20645;-52
2022/06/10 06:39:52;;;;;;;4.10;1.97;;;16.60;99.90;;;;;;5075575;28;20290;-51
2022/06/10 06:42:19;;;;;;;6.60;1.70;;;16.60;99.90;;;;;;5073593;28;20212;-52
2022/06/10 06:44:46;;;;;;;4.33;1.50;;;16.60;99.90;;;;;;5073710;28;20659;-52
2022/06/10 06:47:33;;;;;;;6.27;1.40;;;16.60;99.90;;;;;;5071560;28;20614;-51
2022/06/10 06:50:00;;;;;;;6.00;1.47;;;16.70;99.90;;;;;;5081623;28;20209;-52
2022/06/10 06:52:27;;;;;;;6.60;1.93;;;16.70;99.90;;;;;;5076853;28;21064;-54
2022/06/10 06:54:54;;;;;;;6.87;2.17;;;16.70;99.90;;;;;;5069793;28;22351;-52
2022/06/10 06:57:20;;;;;;;10.50;2.17;;;16.70;99.90;;;;;;5074596;28;20669;-51
2022/06/10 06:59:47;;;;;;;11.33;3.80;;;16.70;99.90;;;;;;5074700;28;20559;-52
2022/06/10 07:02:14;;;;;;;5.87;2.00;;;16.80;99.90;;;;;;5068516;28;20317;-51
2022/06/10 07:04:41;;;;;;;7.13;1.83;;;16.80;99.90;;;;;;5070824;28;20215;-52
2022/06/10 07:07:08;;;;;;;7.43;2.30;;;16.90;99.90;;;;;;5071534;28;20695;-53
2022/06/10 07:09:35;;;;;;;6.17;2.07;;;16.90;99.90;;;;;;5079086;28;22387;-53
2022/06/10 07:12:01;;;;;;;7.67;2.63;;;16.90;99.90;;;;;;5077769;28;20193;-53
2022/06/10 07:14:28;;;;;;;5.80;2.30;;;17.00;99.90;;;;;;5060494;28;20206;-53
2022/06/10 07:16:55;;;;;;;6.60;2.10;;;17.10;99.90;;;;;;5075525;28;20224;-53
2022/06/10 07:19:22;;;;;;;4.50;2.00;;;17.10;99.90;;;;;;5078282;28;20205;-52
2022/06/10 07:21:49;;;;;;;10.97;2.80;;;17.20;99.90;;;;;;5081464;28;20715;-52
2022/06/10 07:24:20;;;;;;;3.80;1.80;;;17.20;99.90;;;;;;5081559;28;20240;-53
2022/06/10 07:26:47;;;;;;;3.63;2.10;;;17.30;99.90;;;;;;5075519;28;20215;-52
2022/06/10 07:29:14;;;;;;;5.20;1.60;;;17.40;99.90;;;;;;5073091;28;20270;-54
2022/06/10 07:31:41;;;;;;;4.63;2.00;;;17.40;99.90;;;;;;5072239;28;20728;-51
2022/06/10 07:34:09;;;;;;;5.47;2.83;;;17.40;99.30;;;;;;5045674;28;20195;-51
2022/06/10 07:36:38;;;;;;;7.60;2.23;;;17.40;99.90;;;;;;5073986;28;20214;-52
2022/06/10 07:39:05;;;;;;;7.67;1.73;;;17.50;99.90;;;;;;5071486;28;20211;-52
2022/06/10 07:44:20;;;;;;;3.73;1.50;;;17.70;34.70;;;;;;5074963;28;20198;-53
2022/06/10 07:46:52;;;;;;;5.83;1.97;;;17.70;6.30;;;;;;5074968;28;20226;-53
2022/06/10 07:49:24;;;;;;;9.50;1.67;;;17.80;1.00;;;;;;5077443;28;20213;-52
2022/06/10 07:51:51;;;;;;;7.73;2.00;;;17.80;1.00;;;;;;5087290;28;20542;-52
2022/06/10 07:54:18;;;;;;;4.93;1.87;;;17.90;1.00;;;;;;5080286;28;20253;-52
2022/06/10 07:56:45;;;;;;;5.20;1.70;;;18.00;1.00;;;;;;5081696;28;20293;-52
2022/06/10 07:59:14;;;;;;;117.20;16.77;;;18.00;1.00;;;;;;5075331;28;20263;-52
2022/06/10 08:01:41;;;;;;;7.13;1.80;;;18.10;16.10;;;;;;5075307;28;20303;-52
2022/06/10 08:04:09;;;;;;;9.57;1.50;;;18.10;1.00;;;;;;5054521;28;20573;-53
2022/06/10 08:06:43;;;;;;;3.37;1.33;;;18.10;1.00;;;;;;5076141;28;20249;-52
2022/06/10 08:09:10;;;;;;;9.20;2.07;;;18.10;1.00;;;;;;5086995;28;20228;-52
2022/06/10 08:11:38;;;;;;;6.17;1.87;;;18.20;1.00;;;;;;5084180;28;20634;-52
2022/06/10 08:14:06;;;;;;;3.30;1.47;;;18.30;1.00;;;;;;5086124;28;20251;-53
2022/06/10 08:16:34;;;;;;;3.30;1.60;;;18.20;1.00;;;;;;5085971;28;20259;-52
2022/06/10 08:19:02;;;;;;;4.73;1.30;;;18.30;1.00;;;;;;5087835;28;20297;-53
2022/06/10 08:24:14;;;;;;;7.23;2.27;;;18.30;1.00;;;;;;5081591;28;20255;-52
2022/06/10 08:26:41;;;;;;;3.17;1.33;;;18.40;1.00;;;;;;5086956;28;20253;-53
2022/06/10 08:29:16;;;;;;;4.50;1.43;;;18.50;1.00;;;;;;5089136;28;20252;-52
2022/06/10 08:31:43;;;;;;;3.73;1.77;;;18.50;1.00;;;;;;5084636;28;20206;-51
2022/06/10 08:34:11;;;;;;;6.03;1.40;;;18.70;1.00;;;;;;5081930;28;20203;-53
2022/06/10 08:36:38;;;;;;;5.23;1.87;;;18.60;1.00;;;;;;5088846;28;20592;-52
2022/06/10 08:39:05;;;;;;;8.00;1.40;;;18.70;1.00;;;;;;5071800;28;20224;-53
2022/06/10 08:41:51;;;;;;;4.43;1.73;;;18.90;1.00;;;;;;5086817;28;20213;-52
2022/06/10 08:44:40;;;;;;;6.60;1.70;;;18.90;1.00;;;;;;5088680;28;20292;-53
2022/06/10 08:47:12;;;;;;;4.33;1.70;;;18.90;1.00;;;;;;5089154;28;20252;-53
2022/06/10 08:50:10;;;;;;;6.60;1.60;;;19.00;1.00;;;;;;5092488;28;20202;-52
2022/06/10 08:53:19;;;;;;;3.30;1.53;;;18.90;1.00;;;;;;5091196;28;20279;-53
2022/06/10 08:56:15;;;;;;;5.10;1.57;;;19.20;1.00;;;;;;5067692;28;20268;-53
2022/06/10 08:59:00;;;;;;;8.70;2.43;;;19.10;1.00;;;;;;5089242;28;20207;-53
2022/06/10 09:01:30;;;;;;;4.30;1.30;;;19.20;1.00;;;;;;5092591;28;20233;-53
2022/06/10 09:04:07;;;;;;;9.20;2.00;;;19.30;1.00;;;;;;5091758;28;20214;-53
2022/06/10 09:06:47;;;;;;;8.13;2.00;;;19.30;1.00;;;;;;5091593;28;20246;-56
2022/06/10 09:09:17;;;;;;;7.67;1.73;;;19.30;1.00;;;;;;5103701;28;20203;-52
2022/06/10 09:12:00;;;;;;;5.10;1.70;;;19.40;1.00;;;;;;5082331;28;20265;-51
2022/06/10 09:14:28;;;;;;;11.87;1.93;;;19.50;1.00;;;;;;5092330;28;20401;-53
2022/06/10 09:17:09;;;;;;;11.17;1.87;;;19.70;1.00;;;;;;5092957;28;20237;-53
2022/06/10 09:19:41;;;;;;;4.97;1.90;;;19.70;1.00;;;;;;5080035;28;20237;-52
2022/06/10 09:22:40;;;;;;;5.87;1.63;;;19.90;1.00;;;;;;5085571;28;20854;-54
2022/06/10 09:25:23;;;;;;;4.50;1.80;;;20.10;1.00;;;;;;5091267;28;20199;-53
2022/06/10 09:27:55;;;;;;;4.60;2.20;;;20.00;1.00;;;;;;5089856;28;20291;-54
2022/06/10 09:30:46;;;;;;;5.17;1.90;;;20.20;99.90;;;;;;5084489;28;20291;-53
2022/06/10 09:33:30;;;;;;;8.40;2.07;;;20.50;1.00;;;;;;5075134;28;20240;-53
2022/06/10 09:36:23;;;;;;;4.07;1.60;;;20.80;99.90;;;;;;5071353;28;20218;-53
2022/06/10 09:42:36;;;;;;;3.57;2.00;;;21.20;99.90;;;;;;5073781;28;20678;-53
2022/06/10 09:45:14;;;;;;;7.67;2.13;;;21.30;99.90;;;;;;5075799;28;20230;-54
2022/06/10 09:48:09;;;;;;;4.87;2.03;;;21.30;99.90;;;;;;5082885;28;20210;-53
2022/06/10 09:51:16;;;;;;;7.10;2.30;;;21.30;99.90;;;;;;5080820;28;20226;-54
2022/06/10 09:54:01;;;;;;;3.10;2.03;;;21.50;99.90;;;;;;5082612;28;20235;-52
2022/06/10 09:57:23;;;;;;;6.90;2.20;;;21.70;99.90;;;;;;5079334;28;20255;-52
2022/06/10 10:00:11;;;;;;;4.00;1.70;;;21.70;74.80;;;;;;5065765;28;20217;-53
2022/06/10 10:03:06;;;;;;;4.23;1.97;;;21.70;1.00;;;;;;5074183;28;20229;-53
2022/06/10 10:05:39;;;;;;;6.00;2.23;;;21.60;99.90;;;;;;5079085;28;20291;-52
2022/06/10 10:08:09;;;;;;;7.53;2.07;;;21.10;99.90;;;;;;5076999;28;20224;-52
2022/06/10 10:11:06;;;;;;;6.03;1.80;;;21.00;99.90;;;;;;5081348;28;20221;-54
2022/06/10 10:14:09;;;;;;;6.43;1.90;;;21.50;1.00;;;;;;5078179;28;20199;-52
2022/06/10 10:17:01;;;;;;;8.73;2.27;;;21.80;99.90;;;;;;5061959;28;20205;-53
2022/06/10 10:19:50;;;;;;;4.63;2.03;;;22.00;99.90;;;;;;5072875;28;20299;-54
2022/06/10 10:22:39;;;;;;;5.57;1.73;;;21.90;99.90;;;;;;5081527;28;20256;-52
2022/06/10 10:25:14;;;;;;;7.63;2.17;;;21.90;99.90;;;;;;5082206;28;20201;-54
2022/06/10 10:27:42;;;;;;;2.90;1.90;;;21.50;99.90;;;;;;5074745;28;20194;-52
2022/06/10 10:30:23;;;;;;;4.10;1.83;;;21.50;99.90;;;;;;5074498;28;20718;-53
2022/06/10 10:32:55;;;;;;;4.43;1.80;;;21.60;99.90;;;;;;5078730;28;20646;-53
2022/06/10 10:35:32;;;;;;;9.10;3.13;;;21.70;99.90;;;;;;5085974;28;20206;-54
2022/06/10 10:38:02;;;;;;;4.27;1.80;;;21.40;99.90;;;;;;5077480;28;20194;-53
2022/06/10 10:40:44;;;;;;;6.63;2.10;;;21.10;99.90;;;;;;5074395;28;20199;-53
2022/06/10 10:43:21;;;;;;;6.50;2.17;;;21.20;1.00;;;;;;5079437;28;20206;-53
2022/06/10 10:46:05;;;;;;;8.37;2.30;;;21.20;1.00;;;;;;5078672;28;20572;-54
2022/06/10 10:48:44;;;;;;;7.23;2.47;;;21.20;1.00;;;;;;5078126;28;20217;-53
2022/06/10 10:51:10;;;;;;;9.53;3.10;;;21.00;1.00;;;;;;5075693;28;20204;-53
2022/06/10 10:54:31;;;;;;;8.47;2.40;;;21.00;1.00;;;;;;5074325;28;20230;-51
2022/06/10 10:57:01;;;;;;;5.97;1.70;;;21.00;1.00;;;;;;5059672;28;20262;-53
2022/06/10 10:59:37;;;;;;;7.83;1.60;;;21.10;1.00;;;;;;5070720;28;20206;-60
2022/06/10 11:02:25;;;;;;;3.87;1.50;;;21.10;1.00;;;;;;5072142;28;20237;-61
2022/06/10 11:05:06;;;;;;;5.93;1.90;;;21.00;1.00;;;;;;5076776;28;20206;-52
2022/06/10 11:07:33;;;;;;;4.70;1.67;;;21.00;1.00;;;;;;5078333;28;20215;-53
2022/06/10 11:10:17;;;;;;;4.93;1.40;;;21.10;1.00;;;;;;5071229;28;20298;-52
2022/06/10 11:12:45;;;;;;;5.10;1.67;;;21.60;1.00;;;;;;5075984;28;20194;-53
2022/06/10 11:15:27;;;;;;;5.57;1.90;;;22.10;99.90;;;;;;5078380;28;20287;-53
2022/06/10 11:17:56;;;;;;;4.47;1.93;;;22.60;99.90;;;;;;5081569;28;21181;-53
2022/06/10 11:20:31;;;;;;;2.87;1.87;;;22.40;99.90;;;;;;5072746;28;20199;-53
2022/06/10 11:23:24;;;;;;;5.33;2.13;;;22.00;99.90;;;;;;5074509;28;21012;-52
2022/06/10 11:26:12;;;;;;;7.03;2.20;;;21.70;99.90;;;;;;5074027;28;20222;-53
2022/06/10 11:28:42;;;;;;;7.53;3.13;;;21.50;99.90;;;;;;5076566;28;20219;-53
2022/06/10 11:31:19;;;;;;;4.87;2.53;;;21.30;99.90;;;;;;5074748;28;20192;-53
2022/06/10 11:33:51;;;;;;;3.00;2.70;;;21.30;1.00;;;;;;5082402;28;20230;-53
2022/06/10 11:36:43;;;;;;;6.17;2.73;;;21.30;1.00;;;;;;5077412;28;20294;-53
2022/06/10 11:39:33;;;;;;;6.80;3.17;;;21.30;1.00;;;;;;5083325;28;20267;-53
2022/06/10 11:42:16;;;;;;;6.30;2.93;;;21.30;1.00;;;;;;5074245;28;20216;-53
2022/06/10 11:44:56;;;;;;;5.13;3.17;;;21.30;1.00;;;;;;5073885;28;20206;-53
2022/06/10 11:47:41;;;;;;;8.87;3.00;;;21.30;1.00;;;;;;5072817;28;20338;-52
2022/06/10 11:50:39;;;;;;;3.80;2.57;;;22.10;1.00;;;;;;5076338;28;20295;-53
2022/06/10 11:53:16;;;;;;;6.03;3.00;;;22.20;99.90;;;;;;5081078;28;20230;-53
2022/06/10 11:55:46;;;;;;;5.07;2.50;;;22.40;99.90;;;;;;5078632;28;20641;-53
2022/06/10 12:01:20;;;;;;;4.83;2.53;;;23.10;99.90;;;;;;5071362;28;20245;-53
2022/06/10 12:04:13;;;;;;;5.43;2.33;;;23.20;99.90;;;;;;5082949;28;20823;-52
2022/06/10 12:06:53;;;;;;;5.87;2.50;;;23.10;1.00;;;;;;5073685;28;20208;-51
2022/06/10 12:09:36;;;;;;;7.97;2.60;;;22.70;99.90;;;;;;5073781;28;20927;-54
2022/06/10 12:12:13;;;;;;;7.57;3.13;;;22.30;99.90;;;;;;5080058;28;20245;-54
2022/06/10 12:14:50;;;;;;;8.53;3.20;;;22.30;99.90;;;;;;5075233;28;20291;-53
2022/06/10 12:17:19;;;;;;;7.00;2.80;;;22.80;99.90;;;;;;5077503;28;20234;-54
2022/06/10 12:20:19;;;;;;;4.40;2.53;;;23.20;99.90;;;;;;5076074;28;21012;-54
2022/06/10 12:22:46;;;;;;;4.30;3.00;;;23.70;1.00;;;;;;5036220;28;20223;-54
2022/06/10 12:25:24;;;;;;;4.80;2.57;;;23.80;1.00;;;;;;5084541;28;20207;-54
2022/06/10 12:27:57;;;;;;;7.47;3.57;;;23.80;1.00;;;;;;5077239;28;20214;-53
2022/06/10 12:30:35;;;;;;;7.70;3.07;;;23.70;1.00;;;;;;5080749;28;20195;-53
2022/06/10 12:33:15;;;;;;;6.77;2.20;;;23.20;98.60;;;;;;5071509;28;20248;-54
2022/06/10 12:35:43;;;;;;;6.50;3.00;;;23.20;99.90;;;;;;5081241;28;20248;-53
2022/06/10 12:38:22;;;;;;;5.70;2.00;;;23.30;99.90;;;;;;5081210;28;20385;-54
2022/06/10 12:40:56;;;;;;;4.77;2.20;;;23.30;99.90;;;;;;5079221;28;20252;-54
2022/06/10 12:43:30;;;;;;;4.57;2.50;;;23.20;99.90;;;;;;5078467;28;20207;-53
2022/06/10 12:46:02;;;;;;;6.90;2.47;;;23.40;99.90;;;;;;5080241;28;20282;-54
2022/06/10 12:48:40;;;;;;;6.07;2.47;;;23.80;99.90;;;;;;5082424;28;20203;-54
2022/06/10 12:51:13;;;;;;;5.33;2.30;;;24.10;99.90;;;;;;5079783;28;20729;-54
2022/06/10 12:53:53;;;;;;;6.83;2.03;;;24.20;99.90;;;;;;5081439;28;21195;-54
2022/06/10 12:56:33;;;;;;;5.70;1.80;;;24.10;1.00;;;;;;5075589;28;20205;-53
2022/06/10 12:59:06;;;;;;;5.30;1.73;;;24.40;99.90;;;;;;5081308;28;20245;-53
2022/06/10 13:01:33;;;;;;;5.10;2.40;;;24.20;99.90;;;;;;5078830;28;20264;-54
2022/06/10 13:04:04;;;;;;;8.00;2.20;;;23.80;94.60;;;;;;5082013;28;20972;-54
2022/06/10 13:06:41;;;;;;;6.97;1.70;;;23.30;76.30;;;;;;5073899;28;20216;-53
2022/06/10 13:09:11;;;;;;;5.70;1.87;;;23.10;99.90;;;;;;5078445;28;20232;-53
2022/06/10 13:11:52;;;;;;;5.23;1.80;;;23.00;99.90;;;;;;5078725;28;20206;-54
2022/06/10 13:14:29;;;;;;;5.07;1.60;;;23.00;99.90;;;;;;5083891;28;20567;-53
2022/06/10 13:16:59;;;;;;;7.87;1.90;;;23.30;99.90;;;;;;5064119;28;20215;-53
2022/06/10 13:19:34;;;;;;;6.03;1.90;;;23.50;99.90;;;;;;5071438;28;20261;-54
2022/06/10 13:22:19;;;;;;;4.07;1.80;;;23.30;99.90;;;;;;5074529;28;20313;-53
2022/06/10 13:24:52;;;;;;;5.70;1.57;;;23.00;99.90;;;;;;5076627;28;20206;-54
2022/06/10 13:27:30;;;;;;;6.23;1.87;;;23.10;99.90;;;;;;5062237;28;20703;-54
2022/06/10 13:30:22;;;;;;;4.77;2.10;;;22.80;99.90;;;;;;5070403;28;20263;-54
2022/06/10 13:32:54;;;;;;;6.60;1.60;;;22.70;99.90;;;;;;5070738;28;20235;-57
2022/06/10 13:35:25;;;;;;;5.30;1.83;;;22.90;99.90;;;;;;5077472;28;20203;-53
2022/06/10 13:38:38;;;;;;;4.33;1.57;;;22.90;99.90;;;;;;5079310;28;20690;-54
2022/06/10 13:44:16;;;;;;;5.07;1.43;;;22.90;99.90;;;;;;5075993;28;20244;-54
2022/06/10 13:46:46;;;;;;;4.60;1.50;;;22.80;99.90;;;;;;5076785;28;20208;-53
2022/06/10 13:49:18;;;;;;;7.80;1.80;;;22.60;99.90;;;;;;5071177;28;20198;-53